Monday, December 18, 2017, 5:57 AM EST
Back to Local

KBDR, Sikorsky Memorial Airport

Location: Stratford, CT, United States Lat: 41.167
Local Time: 5:57 AM EST (10:57 GMT) Lon: -73.133
Time Zone: US/Eastern Elev: 9 ft

Show me the last for .
Show Decoded

2017-12-18 04:52 METAR KBDR 180952Z AUTO 03006KT 10SM -SN SCT024 SCT030 OVC041 M01/M08 A3017 RMK
                 AO2 SNE14B52 SLP216 P0000 T10061078 =
2017-12-18 04:44 METAR KBDR 180944Z AUTO 03006KT 10SM FEW024 SCT033 OVC048 00/M08 A3017 RMK AO2
                 SNE14 P0000 T00001078 =
2017-12-18 04:17 METAR KBDR 180917Z AUTO 03005KT 9SM BKN022 OVC049 00/M08 A3017 RMK AO2 SNE14
                 P0000 T00001078 =
2017-12-18 02:52 METAR KBDR 180752Z AUTO 03005KT 10SM OVC022 00/M10 A3020 RMK AO2 SLP227
                 T00001100 =
2017-12-18 02:13 METAR KBDR 180713Z AUTO 03006KT 10SM BKN024 BKN120 M01/M10 A3020 RMK AO2
                 T10061100 =
2017-12-18 01:52 METAR KBDR 180652Z AUTO 04005KT 10SM FEW060 BKN120 M01/M10 A3020 RMK AO2 SLP226
                 T10061100 =
2017-12-18 00:42 METAR KBDR 180542Z AUTO 04005KT 10SM BKN024 BKN120 00/M10 A3021 RMK AO2
                 T00001100 =
2017-12-18 00:32 METAR KBDR 180532Z AUTO 03005KT 10SM SCT022 BKN120 00/M10 A3021 RMK AO2
                 T00001100 =
2017-12-17 23:52 METAR KBDR 180452Z AUTO 02007KT 10SM OVC022 00/M10 A3023 RMK AO2 SLP235
                 T00001100 400061044 =
2017-12-17 22:52 METAR KBDR 180352Z AUTO 03004KT 10SM BKN025 00/M09 A3024 RMK AO2 SLP239
                 T00001094 =
2017-12-17 21:52 METAR KBDR 180252Z 05004KT 10SM SCT120 00/M09 A3025 RMK AO2 SLP243 T00001094
                 58008 =
2017-12-17 20:52 METAR KBDR 180152Z 03004KT 10SM SCT120 00/M10 A3027 RMK AO2 SLP251 T00001100 =
2017-12-17 19:52 METAR KBDR 180052Z AUTO 00000KT 10SM SCT055 00/M07 A3028 RMK AO2 SLP254
                 T00001067 =
2017-12-17 18:52 METAR KBDR 172352Z 00000KT 10SM SCT100 M01/M07 A3027 RMK AO2 SLP251 T10061067
                 10006 21006 51007 =
2017-12-17 17:52 METAR KBDR 172252Z 01003KT 10SM CLR 00/M08 A3026 RMK AO2 SLP248 T00001078 =
2017-12-17 16:52 METAR KBDR 172152Z 00000KT 10SM CLR 00/M08 A3026 RMK AO2 SLP248 T00001078 =
2017-12-17 15:52 METAR KBDR 172052Z 00000KT 10SM CLR 01/M08 A3025 RMK AO2 SLP244 T00061078 55006
                 =
2017-12-17 14:52 METAR KBDR 171952Z 29004KT 10SM OVC060 01/M08 A3025 RMK AO2 SLP243 T00061078 =
2017-12-17 13:52 METAR KBDR 171852Z 31005KT 10SM OVC060 00/M08 A3024 RMK AO2 SLP240 T00001083 =
2017-12-17 12:52 METAR KBDR 171752Z 31003KT 10SM FEW038 OVC055 M01/M08 A3027 RMK AO2 SLP250
                 T10061083 11006 21044 58014 =
2017-12-17 11:52 METAR KBDR 171652Z 28005KT 10SM BKN030 OVC060 M01/M09 A3029 RMK AO2 SLP258
                 T10111089 =
2017-12-17 10:52 METAR KBDR 171552Z 29006KT 10SM FEW034 OVC060 M02/M09 A3030 RMK AO2 SLP260
                 T10171094 =
2017-12-17 09:52 METAR KBDR 171452Z 00000KT 10SM OVC065 M02/M09 A3031 RMK AO2 SLP264 T10171094
                 51012 =
2017-12-17 08:52 METAR KBDR 171352Z 00000KT 10SM CLR M03/M10 A3030 RMK AO2 SLP261 T10281100 =
2017-12-17 07:52 METAR KBDR 171252Z 00000KT 10SM CLR M04/M09 A3030 RMK AO2 SLP259 T10391094 =
2017-12-17 06:52 METAR KBDR 171152Z 02003KT 10SM CLR M04/M10 A3028 RMK AO2 SLP252 T10441100 11022
                 21044 51003 =

Support USWX by starting your Amazon purchase here.